createdAt,value
2018-12-06T00:00:15.608Z,982.54
2018-12-06T00:01:25.539Z,982.51
2018-12-06T00:02:35.568Z,982.55
2018-12-06T00:03:45.258Z,982.53
2018-12-06T00:04:55.200Z,982.56
2018-12-06T00:06:05.139Z,982.57
2018-12-06T00:07:15.066Z,982.55
2018-12-06T00:08:25.058Z,982.58
2018-12-06T00:09:34.984Z,982.55
2018-12-06T00:10:44.918Z,982.53
2018-12-06T00:11:54.853Z,982.52
2018-12-06T00:13:04.784Z,982.56
2018-12-06T00:14:14.763Z,982.54
2018-12-06T00:15:24.691Z,982.52
2018-12-06T00:16:34.629Z,982.56
2018-12-06T00:17:44.562Z,982.53
2018-12-06T00:18:54.489Z,982.5
2018-12-06T00:20:04.419Z,982.56
2018-12-06T00:21:14.349Z,982.54
2018-12-06T00:22:24.277Z,982.5
2018-12-06T00:23:34.239Z,982.52
2018-12-06T00:24:44.171Z,982.5
2018-12-06T00:25:54.161Z,982.49
2018-12-06T00:27:04.085Z,982.52
2018-12-06T00:28:14.012Z,982.49
2018-12-06T00:29:23.944Z,982.49
2018-12-06T00:30:33.874Z,982.48
2018-12-06T00:31:43.904Z,982.5
2018-12-06T00:32:53.830Z,982.45
2018-12-06T00:34:03.769Z,982.45
2018-12-06T00:35:13.704Z,982.44
2018-12-06T00:36:23.631Z,982.44
2018-12-06T00:37:33.664Z,982.38
2018-12-06T00:38:43.590Z,982.35
2018-12-06T00:39:53.523Z,982.31
2018-12-06T00:41:03.456Z,982.35
2018-12-06T00:42:13.383Z,982.38
2018-12-06T00:43:23.424Z,982.36
2018-12-06T00:44:33.354Z,982.4
2018-12-06T00:45:43.300Z,982.43
2018-12-06T00:46:53.242Z,982.47
2018-12-06T00:48:03.166Z,982.49
2018-12-06T00:49:13.203Z,982.45
2018-12-06T00:50:23.133Z,982.49
2018-12-06T00:51:33.058Z,982.46
2018-12-06T00:52:42.994Z,982.44
2018-12-06T00:53:52.938Z,982.39
2018-12-06T00:55:02.967Z,982.37
2018-12-06T00:56:12.905Z,982.38
2018-12-06T00:57:22.835Z,982.39
2018-12-06T00:58:32.764Z,982.37
2018-12-06T00:59:42.692Z,982.33
2018-12-06T01:00:52.722Z,982.32
2018-12-06T01:02:02.652Z,982.31
2018-12-06T01:03:12.643Z,982.39
2018-12-06T01:04:22.572Z,982.36
2018-12-06T01:05:32.507Z,982.37
2018-12-06T01:06:42.484Z,982.41
2018-12-06T01:07:52.416Z,982.37
2018-12-06T01:09:02.346Z,982.41
2018-12-06T01:10:12.021Z,982.49
2018-12-06T01:11:21.952Z,982.46
2018-12-06T01:12:31.927Z,982.49
2018-12-06T01:13:41.856Z,982.51
2018-12-06T01:14:51.820Z,982.54
2018-12-06T01:16:01.749Z,982.56
2018-12-06T01:17:11.682Z,982.58
2018-12-06T01:18:21.719Z,982.58
2018-12-06T01:19:31.656Z,982.55
2018-12-06T01:20:41.590Z,982.56
2018-12-06T01:21:51.520Z,982.58
2018-12-06T01:23:01.445Z,982.6
2018-12-06T01:24:11.422Z,982.56
2018-12-06T01:25:21.362Z,982.55
2018-12-06T01:26:31.288Z,982.51
2018-12-06T01:27:41.212Z,982.5
2018-12-06T01:28:51.138Z,982.46
2018-12-06T01:30:01.220Z,982.47
2018-12-06T01:31:11.147Z,982.48
2018-12-06T01:32:21.081Z,982.52
2018-12-06T01:33:31.010Z,982.51
2018-12-06T01:34:40.940Z,982.51
2018-12-06T01:35:50.975Z,982.46
2018-12-06T01:37:00.905Z,982.5
2018-12-06T01:38:10.834Z,982.55
2018-12-06T01:39:20.763Z,982.49
2018-12-06T01:40:30.695Z,982.52
2018-12-06T01:41:40.726Z,982.52
2018-12-06T01:42:50.653Z,982.59
2018-12-06T01:44:00.584Z,982.6
2018-12-06T01:45:10.516Z,982.63
2018-12-06T01:46:20.441Z,982.66
2018-12-06T01:47:30.472Z,982.62
2018-12-06T01:48:40.407Z,982.64
2018-12-06T01:49:50.337Z,982.66
2018-12-06T01:51:00.268Z,982.64
2018-12-06T01:52:09.945Z,982.7
2018-12-06T01:53:19.927Z,982.68
2018-12-06T01:54:29.855Z,982.7
2018-12-06T01:55:39.777Z,982.69
2018-12-06T01:56:49.707Z,982.75
2018-12-06T01:57:59.639Z,982.75
2018-12-06T01:59:09.714Z,982.75
2018-12-06T02:00:19.652Z,982.81
2018-12-06T02:01:29.593Z,982.8
2018-12-06T02:02:39.594Z,982.76
2018-12-06T02:03:49.526Z,982.76
2018-12-06T02:04:59.504Z,982.74
2018-12-06T02:06:09.435Z,982.76
2018-12-06T02:07:19.462Z,982.73
2018-12-06T02:08:29.393Z,982.71
2018-12-06T02:09:39.323Z,982.71
2018-12-06T02:10:49.413Z,982.71
2018-12-06T02:11:59.435Z,982.7
2018-12-06T02:13:09.378Z,982.7
2018-12-06T02:14:19.306Z,982.71
2018-12-06T02:15:29.237Z,982.68
2018-12-06T02:16:39.316Z,982.69
2018-12-06T02:17:49.245Z,982.74
2018-12-06T02:18:59.173Z,982.76
2018-12-06T02:20:09.101Z,982.77
2018-12-06T02:21:19.039Z,982.8
2018-12-06T02:22:28.781Z,982.81
2018-12-06T02:23:38.710Z,982.79
2018-12-06T02:24:48.641Z,982.84
2018-12-06T02:25:58.570Z,982.8
2018-12-06T02:27:08.497Z,982.79
2018-12-06T02:28:18.484Z,982.79
2018-12-06T02:29:28.414Z,982.77
2018-12-06T02:30:38.342Z,982.78
2018-12-06T02:31:48.041Z,982.74
2018-12-06T02:32:57.974Z,982.77
2018-12-06T02:34:07.971Z,982.71
2018-12-06T02:35:17.898Z,982.72
2018-12-06T02:36:27.577Z,982.76
2018-12-06T02:37:37.515Z,982.71
2018-12-06T02:38:47.467Z,982.75
2018-12-06T02:39:57.243Z,982.73
2018-12-06T02:41:07.190Z,982.72
2018-12-06T02:42:16.904Z,982.72
2018-12-06T02:43:26.847Z,982.77
2018-12-06T02:44:36.793Z,982.75
2018-12-06T02:45:46.983Z,982.76
2018-12-06T02:46:56.930Z,982.79
2018-12-06T02:48:06.871Z,982.79
2018-12-06T02:49:16.803Z,982.74
2018-12-06T02:50:26.483Z,982.76
2018-12-06T02:51:36.469Z,982.71
2018-12-06T02:52:46.410Z,982.73
2018-12-06T02:53:56.336Z,982.71
2018-12-06T02:55:06.275Z,982.7
2018-12-06T02:56:16.201Z,982.68
2018-12-06T02:57:26.180Z,982.68
2018-12-06T02:58:36.113Z,982.66
2018-12-06T02:59:45.800Z,982.65
2018-12-06T03:00:55.736Z,982.67
2018-12-06T03:02:05.674Z,982.63
2018-12-06T03:03:15.708Z,982.61
2018-12-06T03:04:25.639Z,982.62
2018-12-06T03:05:35.329Z,982.63
2018-12-06T03:06:45.256Z,982.59
2018-12-06T03:07:55.186Z,982.61
2018-12-06T03:09:05.231Z,982.62
2018-12-06T03:10:15.165Z,982.62
2018-12-06T03:11:25.098Z,982.61
2018-12-06T03:12:35.037Z,982.63
2018-12-06T03:13:44.985Z,982.64
2018-12-06T03:14:54.973Z,982.61
2018-12-06T03:16:04.913Z,982.64
2018-12-06T03:17:14.849Z,982.66
2018-12-06T03:18:24.794Z,982.59
2018-12-06T03:19:34.722Z,982.57
2018-12-06T03:20:44.700Z,982.61
2018-12-06T03:21:54.637Z,982.62
2018-12-06T03:23:04.572Z,982.62
2018-12-06T03:24:14.513Z,982.64
2018-12-06T03:25:24.452Z,982.64
2018-12-06T03:26:34.510Z,982.61
2018-12-06T03:27:44.436Z,982.6
2018-12-06T03:28:54.381Z,982.6
2018-12-06T03:30:05.290Z,982.6
2018-12-06T03:31:15.268Z,982.6
2018-12-06T03:32:25.278Z,982.59
2018-12-06T03:33:35.234Z,982.64
2018-12-06T03:34:45.238Z,982.61
2018-12-06T03:35:55.175Z,982.63
2018-12-06T03:37:05.122Z,982.59
2018-12-06T03:38:15.050Z,982.55
2018-12-06T03:39:24.991Z,982.53
2018-12-06T03:40:34.921Z,982.55
2018-12-06T03:41:44.604Z,982.52
2018-12-06T03:42:54.539Z,982.51
2018-12-06T03:44:04.526Z,982.48
2018-12-06T03:45:14.461Z,982.51
2018-12-06T03:46:24.392Z,982.51
2018-12-06T03:47:34.327Z,982.52
2018-12-06T03:48:44.314Z,982.56
2018-12-06T03:49:54.297Z,982.57
2018-12-06T03:51:04.252Z,982.56
2018-12-06T03:52:14.178Z,982.59
2018-12-06T03:53:24.126Z,982.57
2018-12-06T03:54:34.050Z,982.56
2018-12-06T03:55:44.098Z,982.58
2018-12-06T03:56:54.059Z,982.54
2018-12-06T03:58:03.994Z,982.53
2018-12-06T03:59:13.927Z,982.54
2018-12-06T04:00:23.606Z,982.52
2018-12-06T04:01:33.650Z,982.57
2018-12-06T04:02:43.602Z,982.57
2018-12-06T04:03:53.544Z,982.56
2018-12-06T04:05:03.592Z,982.56
2018-12-06T04:06:13.544Z,982.56
2018-12-06T04:07:23.478Z,982.54
2018-12-06T04:08:33.424Z,982.55
2018-12-06T04:09:43.350Z,982.51
2018-12-06T04:10:53.283Z,982.52
2018-12-06T04:12:03.304Z,982.49
2018-12-06T04:13:13.244Z,982.51
2018-12-06T04:14:23.170Z,982.47
2018-12-06T04:15:33.111Z,982.45
2018-12-06T04:16:43.062Z,982.49
2018-12-06T04:17:53.010Z,982.46
2018-12-06T04:19:03.042Z,982.47
2018-12-06T04:20:12.971Z,982.48
2018-12-06T04:21:22.925Z,982.45
2018-12-06T04:22:32.851Z,982.54
2018-12-06T04:23:42.776Z,982.53
2018-12-06T04:24:52.808Z,982.49
2018-12-06T04:26:02.755Z,982.44
2018-12-06T04:27:12.691Z,982.42
2018-12-06T04:28:22.630Z,982.4
2018-12-06T04:29:32.586Z,982.4
2018-12-06T04:30:42.636Z,982.38
2018-12-06T04:31:52.567Z,982.43
2018-12-06T04:33:02.498Z,982.42
2018-12-06T04:34:12.451Z,982.43
2018-12-06T04:35:22.538Z,982.45
2018-12-06T04:36:32.635Z,982.48
2018-12-06T04:37:42.592Z,982.53
2018-12-06T04:38:52.532Z,982.51
2018-12-06T04:40:02.473Z,982.53
2018-12-06T04:41:12.402Z,982.58
2018-12-06T04:42:22.394Z,982.59
2018-12-06T04:43:32.328Z,982.62
2018-12-06T04:44:42.290Z,982.58
2018-12-06T04:45:52.222Z,982.56
2018-12-06T04:47:02.163Z,982.58
2018-12-06T04:48:12.215Z,982.57
2018-12-06T04:49:29.368Z,982.52
2018-12-06T04:50:39.298Z,982.59
2018-12-06T04:51:49.234Z,982.55
2018-12-06T04:52:59.163Z,982.62
2018-12-06T04:54:09.206Z,982.59
2018-12-06T04:55:19.146Z,982.58
2018-12-06T04:56:29.087Z,982.56
2018-12-06T04:57:39.034Z,982.55
2018-12-06T04:58:48.972Z,982.55
2018-12-06T04:59:59.017Z,982.52
2018-12-06T05:01:08.976Z,982.51
2018-12-06T05:02:18.921Z,982.46
2018-12-06T05:03:28.853Z,982.48
2018-12-06T05:04:38.786Z,982.47
2018-12-06T05:05:48.820Z,982.43
2018-12-06T05:06:58.750Z,982.41
2018-12-06T05:08:08.677Z,982.35
2018-12-06T05:09:18.364Z,982.33
2018-12-06T05:10:28.295Z,982.36
2018-12-06T05:11:38.402Z,982.42
2018-12-06T05:12:48.329Z,982.39
2018-12-06T05:13:58.253Z,982.41
2018-12-06T05:15:08.180Z,982.39
2018-12-06T05:16:18.117Z,982.39
2018-12-06T05:17:27.893Z,982.39
2018-12-06T05:18:37.820Z,982.39
2018-12-06T05:19:47.752Z,982.37
2018-12-06T05:20:57.677Z,982.37
2018-12-06T05:22:07.602Z,982.36
2018-12-06T05:23:17.640Z,982.37
2018-12-06T05:24:27.569Z,982.34
2018-12-06T05:25:37.503Z,982.31
2018-12-06T05:26:47.435Z,982.3
2018-12-06T05:27:57.367Z,982.29
2018-12-06T05:29:07.445Z,982.27
2018-12-06T05:30:17.389Z,982.27
2018-12-06T05:31:27.317Z,982.29
2018-12-06T05:32:37.250Z,982.29
2018-12-06T05:33:47.184Z,982.28
2018-12-06T05:34:57.216Z,982.26
2018-12-06T05:36:07.147Z,982.29
2018-12-06T05:37:17.074Z,982.32
2018-12-06T05:38:27.002Z,982.31
2018-12-06T05:39:36.936Z,982.29
2018-12-06T05:40:46.921Z,982.32
2018-12-06T05:41:56.857Z,982.32
2018-12-06T05:43:06.786Z,982.31
2018-12-06T05:44:16.709Z,982.38
2018-12-06T05:45:26.632Z,982.38
2018-12-06T05:46:36.667Z,982.37
2018-12-06T05:47:46.606Z,982.38
2018-12-06T05:48:56.528Z,982.36
2018-12-06T05:50:06.454Z,982.36
2018-12-06T05:51:16.217Z,982.35
2018-12-06T05:52:26.195Z,982.39
2018-12-06T05:53:36.120Z,982.35
2018-12-06T05:54:46.049Z,982.37
2018-12-06T05:55:55.975Z,982.39
2018-12-06T05:57:05.902Z,982.4
2018-12-06T05:58:15.926Z,982.37
2018-12-06T05:59:25.952Z,982.43
2018-12-06T06:00:35.882Z,982.43
2018-12-06T06:01:45.810Z,982.42
2018-12-06T06:02:55.743Z,982.41
2018-12-06T06:04:05.728Z,982.42
2018-12-06T06:05:15.401Z,982.46
2018-12-06T06:06:25.330Z,982.44
2018-12-06T06:07:35.258Z,982.44
2018-12-06T06:08:45.188Z,982.48
2018-12-06T06:09:55.218Z,982.5
2018-12-06T06:11:05.150Z,982.5
2018-12-06T06:12:15.078Z,982.51
2018-12-06T06:13:25.011Z,982.49
2018-12-06T06:14:34.949Z,982.56
2018-12-06T06:15:44.979Z,982.59
2018-12-06T06:16:54.907Z,982.65
2018-12-06T06:18:04.912Z,982.65
2018-12-06T06:19:14.842Z,982.66
2018-12-06T06:20:24.770Z,982.69
2018-12-06T06:21:34.751Z,982.67
2018-12-06T06:22:44.680Z,982.63
2018-12-06T06:23:54.606Z,982.6
2018-12-06T06:25:04.543Z,982.56
2018-12-06T06:26:14.483Z,982.55
2018-12-06T06:27:26.204Z,982.48
2018-12-06T06:28:36.080Z,982.46
2018-12-06T06:29:46.015Z,982.51
2018-12-06T06:30:55.939Z,982.55
2018-12-06T06:32:05.863Z,982.58
2018-12-06T06:33:15.942Z,982.56
2018-12-06T06:34:25.877Z,982.58
2018-12-06T06:35:35.805Z,982.57
2018-12-06T06:36:45.734Z,982.61
2018-12-06T06:37:55.662Z,982.62
2018-12-06T06:39:05.647Z,982.61
2018-12-06T06:40:15.585Z,982.59
2018-12-06T06:41:25.512Z,982.58
2018-12-06T06:42:35.447Z,982.59
2018-12-06T06:43:45.378Z,982.55
2018-12-06T06:44:55.404Z,982.56
2018-12-06T06:46:05.337Z,982.61
2018-12-06T06:47:15.263Z,982.56
2018-12-06T06:48:25.192Z,982.58
2018-12-06T06:49:35.156Z,982.52
2018-12-06T06:50:45.186Z,982.51
2018-12-06T06:51:55.112Z,982.48
2018-12-06T06:53:05.054Z,982.41
2018-12-06T06:54:14.992Z,982.43
2018-12-06T06:55:24.924Z,982.4
2018-12-06T06:56:34.865Z,982.42
2018-12-06T06:57:44.799Z,982.42
2018-12-06T06:58:54.732Z,982.41
2018-12-06T07:00:06.218Z,982.41
2018-12-06T07:01:16.148Z,982.43
2018-12-06T07:02:26.234Z,982.36
2018-12-06T07:03:36.166Z,982.38
2018-12-06T07:04:46.096Z,982.38
2018-12-06T07:05:56.023Z,982.38
2018-12-06T07:07:05.951Z,982.37
2018-12-06T07:08:15.990Z,982.4
2018-12-06T07:09:25.921Z,982.39
2018-12-06T07:10:35.853Z,982.41
2018-12-06T07:11:45.781Z,982.34
2018-12-06T07:12:55.712Z,982.33
2018-12-06T07:14:05.800Z,982.27
2018-12-06T07:15:15.769Z,982.29
2018-12-06T07:16:25.704Z,982.26
2018-12-06T07:17:35.642Z,982.28
2018-12-06T07:18:45.583Z,982.22
2018-12-06T07:19:55.661Z,982.26
2018-12-06T07:21:05.586Z,982.27
2018-12-06T07:22:15.511Z,982.27
2018-12-06T07:23:25.442Z,982.24
2018-12-06T07:24:35.371Z,982.28
2018-12-06T07:25:46.399Z,982.24
2018-12-06T07:26:56.502Z,982.24
2018-12-06T07:28:06.434Z,982.18
2018-12-06T07:29:16.362Z,982.14
2018-12-06T07:30:26.291Z,982.17
2018-12-06T07:31:36.268Z,982.17
2018-12-06T07:32:46.196Z,982.18
2018-12-06T07:33:56.135Z,982.19
2018-12-06T07:35:06.068Z,982.22
2018-12-06T07:36:16.003Z,982.19
2018-12-06T07:37:26.194Z,982.17
2018-12-06T07:38:36.130Z,982.22
2018-12-06T07:39:46.109Z,982.21
2018-12-06T07:40:56.044Z,982.21
2018-12-06T07:42:05.973Z,982.23
2018-12-06T07:43:15.952Z,982.23
2018-12-06T07:44:25.952Z,982.22
2018-12-06T07:45:35.883Z,982.27
2018-12-06T07:46:45.811Z,982.25
2018-12-06T07:47:55.749Z,982.23
2018-12-06T07:49:05.776Z,982.26
2018-12-06T07:50:15.717Z,982.25
2018-12-06T07:51:25.648Z,982.27
2018-12-06T07:52:35.576Z,982.24
2018-12-06T07:53:45.512Z,982.22
2018-12-06T07:54:55.611Z,982.2
2018-12-06T07:56:05.545Z,982.21
2018-12-06T07:57:15.548Z,982.2
2018-12-06T07:58:25.526Z,982.21
2018-12-06T07:59:35.461Z,982.26
2018-12-06T08:00:45.394Z,982.24
2018-12-06T08:01:55.321Z,982.26
2018-12-06T08:03:05.248Z,982.28
2018-12-06T08:04:15.187Z,982.3
2018-12-06T08:05:25.119Z,982.3
2018-12-06T08:06:34.956Z,982.28
2018-12-06T08:07:44.885Z,982.3
2018-12-06T08:08:54.815Z,982.33
2018-12-06T08:10:04.743Z,982.28
2018-12-06T08:11:14.694Z,982.3
2018-12-06T08:12:24.771Z,982.28
2018-12-06T08:13:34.455Z,982.33
2018-12-06T08:14:44.385Z,982.27
2018-12-06T08:15:54.314Z,982.27
2018-12-06T08:17:04.243Z,982.3
2018-12-06T08:18:14.221Z,982.32
2018-12-06T08:19:24.145Z,982.29
2018-12-06T08:20:34.083Z,982.29
2018-12-06T08:22:15.844Z,982.35
2018-12-06T08:23:25.928Z,982.32
2018-12-06T08:24:35.857Z,982.31
2018-12-06T08:25:45.789Z,982.35
2018-12-06T08:26:55.716Z,982.33
2018-12-06T08:28:05.649Z,982.3
2018-12-06T08:29:15.739Z,982.27
2018-12-06T08:30:25.427Z,982.29
2018-12-06T08:31:35.358Z,982.25
2018-12-06T08:32:45.288Z,982.24
2018-12-06T08:33:54.970Z,982.24
2018-12-06T08:35:11.383Z,982.24
2018-12-06T08:36:21.317Z,982.25
2018-12-06T08:37:31.289Z,982.28
2018-12-06T08:38:41.222Z,982.23
2018-12-06T08:39:51.151Z,982.18
2018-12-06T08:41:01.181Z,982.21
2018-12-06T08:42:11.459Z,982.21
2018-12-06T08:43:21.397Z,982.22
2018-12-06T08:44:32.280Z,982.18
2018-12-06T08:45:42.210Z,982.2
2018-12-06T08:46:52.301Z,982.19
2018-12-06T08:48:02.231Z,982.19
2018-12-06T08:49:12.159Z,982.15
2018-12-06T08:50:22.086Z,982.09
2018-12-06T08:51:32.013Z,982.08
2018-12-06T08:52:42.175Z,982.12
2018-12-06T08:53:52.102Z,982.09
2018-12-06T08:55:02.041Z,982.07
2018-12-06T08:56:11.967Z,982.07
2018-12-06T08:57:21.896Z,982.04
2018-12-06T08:58:31.878Z,981.98
2018-12-06T08:59:42.016Z,982.02
2018-12-06T09:00:51.948Z,982
2018-12-06T09:02:01.960Z,981.99
2018-12-06T09:03:11.900Z,981.95
2018-12-06T09:04:21.981Z,981.97
2018-12-06T09:05:31.926Z,981.96
2018-12-06T09:06:41.652Z,981.98
2018-12-06T09:07:51.579Z,981.93
2018-12-06T09:09:01.507Z,981.94
2018-12-06T09:10:11.540Z,981.95
2018-12-06T09:11:21.482Z,981.88
2018-12-06T09:12:31.413Z,981.94
2018-12-06T09:13:41.364Z,981.94
2018-12-06T09:14:51.301Z,981.93
2018-12-06T09:16:01.132Z,981.93
2018-12-06T09:17:10.806Z,981.95
2018-12-06T09:18:20.739Z,981.9
2018-12-06T09:19:30.679Z,981.9
2018-12-06T09:20:40.699Z,981.89
2018-12-06T09:21:50.745Z,981.87
2018-12-06T09:23:00.684Z,981.88
2018-12-06T09:24:10.611Z,981.88
2018-12-06T09:25:21.172Z,981.9
2018-12-06T09:26:31.401Z,981.91
2018-12-06T09:27:41.519Z,981.9
2018-12-06T09:28:51.455Z,981.89
2018-12-06T09:30:01.382Z,981.86
2018-12-06T09:31:11.312Z,981.93
2018-12-06T09:32:21.247Z,981.91
2018-12-06T09:33:31.292Z,981.94
2018-12-06T09:34:41.227Z,981.89
2018-12-06T09:35:51.157Z,981.88
2018-12-06T09:37:01.111Z,981.85
2018-12-06T09:38:11.044Z,981.85
2018-12-06T09:39:20.803Z,981.84
2018-12-06T09:40:30.741Z,981.79
2018-12-06T09:41:40.671Z,981.82
2018-12-06T09:42:50.605Z,981.81
2018-12-06T09:44:00.535Z,981.84
2018-12-06T09:45:10.524Z,981.89
2018-12-06T09:46:20.547Z,981.87
2018-12-06T09:47:30.490Z,981.87
2018-12-06T09:48:40.421Z,981.89
2018-12-06T09:49:50.351Z,981.86
2018-12-06T09:51:00.420Z,981.85
2018-12-06T09:52:10.438Z,981.86
2018-12-06T09:53:20.373Z,981.84
2018-12-06T09:54:30.305Z,981.88
2018-12-06T09:55:40.240Z,981.85
2018-12-06T09:56:50.321Z,981.86
2018-12-06T09:58:00.252Z,981.85
2018-12-06T09:59:10.185Z,981.83
2018-12-06T10:00:20.122Z,981.83
2018-12-06T10:01:30.060Z,981.8
2018-12-06T10:02:40.137Z,981.82
2018-12-06T10:03:50.065Z,981.8
2018-12-06T10:05:00.013Z,981.8
2018-12-06T10:06:09.942Z,981.83
2018-12-06T10:07:19.875Z,981.76
2018-12-06T10:08:29.961Z,981.78
2018-12-06T10:09:39.891Z,981.74
2018-12-06T10:10:49.821Z,981.76
2018-12-06T10:11:59.749Z,981.76
2018-12-06T10:13:09.676Z,981.76
2018-12-06T10:14:19.840Z,981.73
2018-12-06T10:15:29.789Z,981.77
2018-12-06T10:16:39.717Z,981.75
2018-12-06T10:17:49.652Z,981.74
2018-12-06T10:18:59.588Z,981.72
2018-12-06T10:20:09.673Z,981.71
2018-12-06T10:21:19.603Z,981.68
2018-12-06T10:22:29.536Z,981.64
2018-12-06T10:23:39.600Z,981.62
2018-12-06T10:24:49.552Z,981.58
2018-12-06T10:25:59.632Z,981.66
2018-12-06T10:27:09.570Z,981.62
2018-12-06T10:28:19.497Z,981.62
2018-12-06T10:29:29.436Z,981.67
2018-12-06T10:30:39.367Z,981.69
2018-12-06T10:31:49.473Z,981.68
2018-12-06T10:32:59.406Z,981.68
2018-12-06T10:34:09.339Z,981.69
2018-12-06T10:35:19.270Z,981.73
2018-12-06T10:36:29.205Z,981.74
2018-12-06T10:37:39.283Z,981.8
2018-12-06T10:38:49.220Z,981.76
2018-12-06T10:39:58.913Z,981.74
2018-12-06T10:41:08.854Z,981.8
2018-12-06T10:42:18.790Z,981.79
2018-12-06T10:43:28.718Z,981.84
2018-12-06T10:44:38.653Z,981.87
2018-12-06T10:45:48.587Z,981.89
2018-12-06T10:46:58.261Z,981.91
2018-12-06T10:48:08.258Z,981.93
2018-12-06T10:49:18.285Z,981.96
2018-12-06T10:50:28.222Z,981.98
2018-12-06T10:51:38.149Z,981.94
2018-12-06T10:52:48.081Z,981.92
2018-12-06T10:53:58.006Z,982
2018-12-06T10:55:07.994Z,982.02
2018-12-06T10:56:17.951Z,982.03
2018-12-06T10:57:27.875Z,982.05
2018-12-06T10:58:37.804Z,982.09
2018-12-06T10:59:47.730Z,982.12
2018-12-06T11:00:57.894Z,982.11
2018-12-06T11:02:07.837Z,982.04
2018-12-06T11:03:17.773Z,982.01
2018-12-06T11:04:27.705Z,981.99
2018-12-06T11:05:37.644Z,981.95
2018-12-06T11:06:47.771Z,981.9
2018-12-06T11:07:57.698Z,981.87
2018-12-06T11:09:07.643Z,981.84
2018-12-06T11:10:17.586Z,981.85
2018-12-06T11:11:27.526Z,981.83
2018-12-06T11:12:37.607Z,981.8
2018-12-06T11:13:47.635Z,981.78
2018-12-06T11:14:57.584Z,981.68
2018-12-06T11:16:07.519Z,981.68
2018-12-06T11:17:17.454Z,981.6
2018-12-06T11:18:27.385Z,981.58
2018-12-06T11:19:37.326Z,981.51
2018-12-06T11:20:47.003Z,981.51
2018-12-06T11:21:56.933Z,981.48
2018-12-06T11:23:06.865Z,981.49
2018-12-06T11:24:16.811Z,981.42
2018-12-06T11:25:26.752Z,981.34
2018-12-06T11:26:36.682Z,981.35
2018-12-06T11:27:46.372Z,981.27
2018-12-06T11:28:56.310Z,981.26
2018-12-06T11:30:06.338Z,981.21
2018-12-06T11:31:16.271Z,981.17
2018-12-06T11:32:26.203Z,981.16
2018-12-06T11:33:36.132Z,981.18
2018-12-06T11:34:46.063Z,981.17
2018-12-06T11:35:55.991Z,981.15
2018-12-06T11:37:05.924Z,981.11
2018-12-06T11:38:15.851Z,981.12
2018-12-06T11:39:25.784Z,981.16
2018-12-06T11:40:35.715Z,981.15
2018-12-06T11:41:45.641Z,981.07
2018-12-06T11:42:55.567Z,981.09
2018-12-06T11:44:05.495Z,981.05
2018-12-06T11:45:15.423Z,981.1
2018-12-06T11:46:25.360Z,981.13
2018-12-06T11:47:35.388Z,981.17
2018-12-06T11:48:45.320Z,981.19
2018-12-06T11:49:55.259Z,981.21
2018-12-06T11:51:05.189Z,981.17
2018-12-06T11:52:15.127Z,981.16
2018-12-06T11:53:25.065Z,981.11
2018-12-06T11:54:34.993Z,981.04
2018-12-06T11:55:44.926Z,981.03
2018-12-06T11:56:54.936Z,981.02
2018-12-06T11:58:11.277Z,980.99
2018-12-06T11:59:21.453Z,980.99
2018-12-06T12:00:31.388Z,981.02
2018-12-06T12:01:41.114Z,980.97
2018-12-06T12:02:51.041Z,980.92
2018-12-06T12:04:00.970Z,980.93
2018-12-06T12:05:10.895Z,980.9
2018-12-06T12:06:20.823Z,980.85
2018-12-06T12:07:30.764Z,980.85
2018-12-06T12:08:40.699Z,980.8
2018-12-06T12:09:50.628Z,980.75
2018-12-06T12:11:00.670Z,980.74
2018-12-06T12:12:10.616Z,980.75
2018-12-06T12:13:20.542Z,980.69
2018-12-06T12:14:30.473Z,980.66
2018-12-06T12:15:40.414Z,980.6
2018-12-06T12:16:50.449Z,980.56
2018-12-06T12:18:00.380Z,980.6
2018-12-06T12:19:10.322Z,980.61
2018-12-06T12:20:20.251Z,980.64
2018-12-06T12:21:30.188Z,980.63
2018-12-06T12:22:40.037Z,980.61
2018-12-06T12:23:49.965Z,980.67
2018-12-06T12:24:59.898Z,980.65
2018-12-06T12:26:09.828Z,980.66
2018-12-06T12:27:19.769Z,980.66
2018-12-06T12:28:29.857Z,980.6
2018-12-06T12:29:39.800Z,980.61
2018-12-06T12:30:49.744Z,980.54
2018-12-06T12:31:59.671Z,980.53
2018-12-06T12:33:09.604Z,980.53
2018-12-06T12:34:19.537Z,980.49
2018-12-06T12:35:29.479Z,980.48
2018-12-06T12:36:39.461Z,980.5
2018-12-06T12:37:49.400Z,980.46
2018-12-06T12:38:59.343Z,980.46
2018-12-06T12:40:09.264Z,980.44
2018-12-06T12:41:19.212Z,980.44
2018-12-06T12:42:29.143Z,980.37
2018-12-06T12:43:39.078Z,980.39
2018-12-06T12:44:49.015Z,980.38
2018-12-06T12:45:58.997Z,980.4
2018-12-06T12:47:08.929Z,980.36
2018-12-06T12:48:18.877Z,980.36
2018-12-06T12:49:28.811Z,980.34
2018-12-06T12:50:38.741Z,980.35
2018-12-06T12:51:48.671Z,980.29
2018-12-06T12:52:58.598Z,980.26
2018-12-06T12:54:08.539Z,980.27
2018-12-06T12:55:18.469Z,980.26
2018-12-06T12:56:28.401Z,980.21
2018-12-06T12:57:38.431Z,980.21
2018-12-06T12:58:48.358Z,980.16
2018-12-06T12:59:58.302Z,980.17
2018-12-06T13:01:08.243Z,980.11
2018-12-06T13:02:18.171Z,980.1
2018-12-06T13:03:28.203Z,980.07
2018-12-06T13:04:38.131Z,980.01
2018-12-06T13:05:48.062Z,980.03
2018-12-06T13:06:58.006Z,979.98
2018-12-06T13:08:07.977Z,979.95
2018-12-06T13:09:18.063Z,979.91
2018-12-06T13:10:28.064Z,979.9
2018-12-06T13:11:37.997Z,979.83
2018-12-06T13:12:47.997Z,979.86
2018-12-06T13:13:57.931Z,979.89
2018-12-06T13:15:07.961Z,979.88
2018-12-06T13:16:17.930Z,979.87
2018-12-06T13:17:27.862Z,979.84
2018-12-06T13:18:37.788Z,979.79
2018-12-06T13:19:47.723Z,979.73
2018-12-06T13:20:57.808Z,979.73
2018-12-06T13:22:07.748Z,979.72
2018-12-06T13:23:17.444Z,979.75
2018-12-06T13:24:27.372Z,979.69
2018-12-06T13:25:37.373Z,979.7
2018-12-06T13:26:47.404Z,979.63
2018-12-06T13:27:57.362Z,979.6
2018-12-06T13:29:07.293Z,979.65
2018-12-06T13:30:17.229Z,979.65
2018-12-06T13:31:27.164Z,979.62
2018-12-06T13:32:37.190Z,979.58
2018-12-06T13:33:47.119Z,979.57
2018-12-06T13:34:57.048Z,979.57
2018-12-06T13:36:06.979Z,979.54
2018-12-06T13:37:16.915Z,979.5
2018-12-06T13:38:26.844Z,979.5
2018-12-06T13:39:36.773Z,979.46
2018-12-06T13:40:46.704Z,979.41
2018-12-06T13:41:56.636Z,979.35
2018-12-06T13:43:06.577Z,979.34
2018-12-06T13:44:16.406Z,979.32
2018-12-06T13:45:26.335Z,979.29
2018-12-06T13:46:36.273Z,979.28
2018-12-06T13:47:46.209Z,979.32
2018-12-06T13:48:56.145Z,979.22
2018-12-06T13:50:06.175Z,979.17
2018-12-06T13:51:16.109Z,979.14
2018-12-06T13:52:26.037Z,979.23
2018-12-06T13:53:35.971Z,979.32
2018-12-06T13:54:45.898Z,979.29
2018-12-06T13:55:55.839Z,979.28
2018-12-06T13:57:05.817Z,979.21
2018-12-06T13:58:15.751Z,979.21
2018-12-06T13:59:25.686Z,979.18
2018-12-06T14:00:35.725Z,979.19
2018-12-06T14:01:46.766Z,979.18
2018-12-06T14:02:56.704Z,979.16
2018-12-06T14:04:06.645Z,979.14
2018-12-06T14:05:16.580Z,979.22
2018-12-06T14:06:26.515Z,979.28
2018-12-06T14:07:36.345Z,979.34
2018-12-06T14:08:46.276Z,979.33
2018-12-06T14:09:56.220Z,979.35
2018-12-06T14:11:05.897Z,979.39
2018-12-06T14:12:15.868Z,979.41
2018-12-06T14:13:25.805Z,979.51
2018-12-06T14:14:35.756Z,979.55
2018-12-06T14:15:45.685Z,979.53
2018-12-06T14:16:55.619Z,979.55
2018-12-06T14:18:05.301Z,979.53
2018-12-06T14:19:15.235Z,979.51
2018-12-06T14:20:25.161Z,979.48
2018-12-06T14:21:35.089Z,979.49
2018-12-06T14:22:45.020Z,979.52
2018-12-06T14:23:54.695Z,979.63
2018-12-06T14:25:04.741Z,979.62
2018-12-06T14:26:14.670Z,979.61
2018-12-06T14:27:24.606Z,979.55
2018-12-06T14:28:34.548Z,979.52
2018-12-06T14:29:44.475Z,979.45
2018-12-06T14:30:54.410Z,979.41
2018-12-06T14:32:04.340Z,979.32
2018-12-06T14:33:14.276Z,979.23
2018-12-06T14:34:24.236Z,979.2
2018-12-06T14:35:34.243Z,979.15